createdAt,value
2023-04-17T00:01:19.698Z,99.90
2023-04-17T00:03:49.361Z,99.90
2023-04-17T00:06:27.283Z,99.90
2023-04-17T00:08:55.739Z,99.90
2023-04-17T00:11:24.047Z,99.90
2023-04-17T00:13:52.005Z,99.90
2023-04-17T00:16:20.157Z,99.90
2023-04-17T00:18:49.622Z,99.90
2023-04-17T00:21:18.668Z,99.90
2023-04-17T00:23:46.734Z,99.90
2023-04-17T00:26:15.318Z,99.90
2023-04-17T00:29:04.969Z,99.90
2023-04-17T00:31:32.938Z,99.90
2023-04-17T00:34:02.338Z,99.90
2023-04-17T00:36:31.940Z,99.90
2023-04-17T00:39:00.042Z,99.90
2023-04-17T00:41:28.125Z,99.90
2023-04-17T00:43:56.075Z,99.90
2023-04-17T00:46:24.107Z,99.90
2023-04-17T00:48:52.177Z,99.90
2023-04-17T00:51:21.893Z,99.90
2023-04-17T00:53:50.317Z,99.90
2023-04-17T00:56:18.379Z,99.90
2023-04-17T00:58:46.873Z,99.90
2023-04-17T01:01:15.066Z,99.90
2023-04-17T01:03:43.452Z,99.90
2023-04-17T01:06:12.320Z,99.90
2023-04-17T01:08:47.553Z,99.90
2023-04-17T01:11:15.580Z,99.90
2023-04-17T01:13:47.348Z,99.90
2023-04-17T01:16:16.288Z,99.90
2023-04-17T01:18:51.675Z,99.90
2023-04-17T01:21:19.712Z,99.90
2023-04-17T01:23:52.227Z,99.90
2023-04-17T01:26:23.448Z,99.90
2023-04-17T01:28:52.907Z,99.90
2023-04-17T01:31:21.992Z,99.90
2023-04-17T01:33:51.060Z,99.90
2023-04-17T01:36:20.054Z,99.90
2023-04-17T01:38:48.015Z,99.90
2023-04-17T01:41:15.987Z,99.90
2023-04-17T01:43:52.506Z,99.90
2023-04-17T01:46:20.766Z,99.90
2023-04-17T01:49:04.083Z,99.90
2023-04-17T01:51:33.048Z,99.90
2023-04-17T01:54:01.070Z,99.90
2023-04-17T01:56:29.045Z,99.90
2023-04-17T01:59:05.657Z,99.90
2023-04-17T02:01:33.729Z,99.90
2023-04-17T02:04:11.751Z,99.90
2023-04-17T02:06:39.781Z,99.90
2023-04-17T02:09:07.731Z,99.90
2023-04-17T02:11:35.784Z,99.90
2023-04-17T02:14:05.248Z,99.90
2023-04-17T02:16:33.472Z,99.90
2023-04-17T02:19:01.873Z,99.90
2023-04-17T02:21:29.914Z,99.90
2023-04-17T02:23:57.878Z,99.90
2023-04-17T02:26:25.908Z,99.90
2023-04-17T02:28:53.908Z,99.90
2023-04-17T02:31:24.044Z,99.90
2023-04-17T02:33:52.199Z,99.90
2023-04-17T02:36:20.170Z,99.90
2023-04-17T02:38:48.127Z,99.90
2023-04-17T02:41:20.624Z,99.90
2023-04-17T02:43:54.461Z,99.90
2023-04-17T02:46:23.853Z,99.90
2023-04-17T02:48:51.826Z,99.90
2023-04-17T02:51:19.830Z,99.90
2023-04-17T02:53:49.150Z,99.90
2023-04-17T02:56:17.109Z,99.90
2023-04-17T02:58:45.579Z,99.90
2023-04-17T03:01:13.651Z,99.90
2023-04-17T03:03:44.955Z,99.90
2023-04-17T03:06:13.290Z,99.90
2023-04-17T03:08:41.259Z,99.90
2023-04-17T03:11:11.308Z,99.90
2023-04-17T03:13:39.317Z,99.90
2023-04-17T03:16:08.033Z,99.90
2023-04-17T03:18:47.669Z,99.90
2023-04-17T03:21:15.683Z,99.90
2023-04-17T03:23:43.794Z,99.90
2023-04-17T03:26:11.755Z,99.90
2023-04-17T03:28:39.709Z,99.90
2023-04-17T03:31:07.733Z,99.90
2023-04-17T03:33:37.825Z,99.90
2023-04-17T03:36:07.901Z,99.90
2023-04-17T03:38:38.848Z,99.90
2023-04-17T03:41:06.945Z,99.90
2023-04-17T03:43:34.860Z,99.90
2023-04-17T03:46:02.975Z,99.90
2023-04-17T03:48:31.242Z,99.90
2023-04-17T03:51:00.485Z,99.90
2023-04-17T03:53:30.954Z,99.90
2023-04-17T03:55:58.963Z,99.90
2023-04-17T03:58:26.917Z,99.90
2023-04-17T04:00:58.971Z,99.90
2023-04-17T04:03:32.998Z,99.90
2023-04-17T04:06:01.986Z,99.90
2023-04-17T04:08:31.388Z,99.90
2023-04-17T04:11:00.636Z,99.90
2023-04-17T04:13:28.608Z,99.90
2023-04-17T04:15:56.647Z,99.90
2023-04-17T04:18:24.641Z,99.90
2023-04-17T04:20:52.685Z,99.90
2023-04-17T04:23:21.087Z,99.90
2023-04-17T04:25:50.465Z,99.90
2023-04-17T04:28:23.330Z,99.90
2023-04-17T04:30:53.027Z,99.90
2023-04-17T04:33:22.293Z,99.90
2023-04-17T04:35:51.923Z,99.90
2023-04-17T04:38:20.058Z,99.90
2023-04-17T04:40:49.875Z,99.90
2023-04-17T04:43:30.152Z,99.90
2023-04-17T04:45:58.103Z,99.90
2023-04-17T04:48:36.182Z,99.90
2023-04-17T04:51:04.286Z,99.90
2023-04-17T04:53:34.361Z,99.90
2023-04-17T04:56:02.373Z,99.90
2023-04-17T04:58:31.795Z,99.90
2023-04-17T05:00:59.770Z,99.90
2023-04-17T05:03:29.549Z,99.90
2023-04-17T05:05:57.724Z,99.90
2023-04-17T05:08:25.754Z,99.90
2023-04-17T05:10:53.765Z,99.90
2023-04-17T05:13:21.760Z,99.90
2023-04-17T05:15:51.565Z,99.90
2023-04-17T05:18:19.605Z,99.90
2023-04-17T05:20:47.574Z,99.90
2023-04-17T05:23:16.510Z,99.90
2023-04-17T05:25:44.693Z,99.90
2023-04-17T05:28:14.796Z,99.90
2023-04-17T05:30:44.250Z,99.90
2023-04-17T05:33:13.599Z,99.90
2023-04-17T05:35:41.563Z,99.90
2023-04-17T05:38:10.734Z,99.90
2023-04-17T05:40:38.812Z,99.90
2023-04-17T05:43:11.145Z,99.90
2023-04-17T05:45:49.269Z,99.90
2023-04-17T05:48:24.006Z,99.90
2023-04-17T05:50:52.168Z,99.90
2023-04-17T05:53:20.128Z,99.90
2023-04-17T05:55:48.189Z,99.90
2023-04-17T05:58:23.783Z,99.90
2023-04-17T06:00:52.781Z,99.90
2023-04-17T06:03:22.466Z,99.90
2023-04-17T06:05:50.706Z,99.90
2023-04-17T06:08:18.768Z,99.90
2023-04-17T06:10:52.375Z,99.90
2023-04-17T06:13:20.431Z,99.90
2023-04-17T06:15:48.512Z,99.90
2023-04-17T06:18:26.595Z,99.90
2023-04-17T06:20:55.778Z,99.90
2023-04-17T06:23:23.765Z,99.90
2023-04-17T06:25:52.240Z,99.90
2023-04-17T06:28:20.320Z,99.90
2023-04-17T06:30:48.420Z,99.90
2023-04-17T06:33:16.462Z,99.90
2023-04-17T06:35:45.866Z,99.90
2023-04-17T06:38:13.941Z,99.90
2023-04-17T06:40:41.930Z,99.90
2023-04-17T06:43:10.350Z,99.90
2023-04-17T06:45:42.357Z,99.90
2023-04-17T06:48:10.384Z,99.90
2023-04-17T06:50:38.337Z,99.90
2023-04-17T06:53:07.694Z,99.90
2023-04-17T06:55:35.753Z,99.90
2023-04-17T06:58:04.165Z,99.90
2023-04-17T07:00:32.183Z,99.90
2023-04-17T07:03:00.675Z,99.90
2023-04-17T07:05:29.238Z,99.90
2023-04-17T07:08:01.285Z,99.90
2023-04-17T07:10:30.643Z,99.90
2023-04-17T07:12:59.451Z,99.90
2023-04-17T07:15:30.485Z,99.90
2023-04-17T07:17:58.595Z,99.90
2023-04-17T07:20:26.611Z,99.90
2023-04-17T07:22:55.481Z,99.90
2023-04-17T07:25:23.445Z,99.90
2023-04-17T07:27:54.184Z,99.90
2023-04-17T07:30:22.187Z,99.90
2023-04-17T07:32:50.212Z,99.90
2023-04-17T07:35:18.372Z,99.90
2023-04-17T07:37:46.407Z,99.90
2023-04-17T07:40:14.601Z,99.90
2023-04-17T07:42:42.569Z,99.90
2023-04-17T07:45:12.859Z,99.90
2023-04-17T07:47:40.878Z,99.90
2023-04-17T07:50:09.727Z,99.90
2023-04-17T07:52:37.687Z,99.90
2023-04-17T07:55:07.209Z,99.90
2023-04-17T07:57:35.201Z,99.90
2023-04-17T08:00:04.447Z,99.90
2023-04-17T08:02:33.992Z,99.90
2023-04-17T08:05:02.286Z,99.90
2023-04-17T08:07:30.752Z,99.90
2023-04-17T08:09:58.739Z,99.90
2023-04-17T08:12:26.911Z,99.90
2023-04-17T08:14:54.874Z,99.90
2023-04-17T08:17:26.072Z,99.90
2023-04-17T08:19:57.449Z,99.90
2023-04-17T08:22:28.646Z,99.90
2023-04-17T08:24:58.303Z,99.90
2023-04-17T08:27:26.468Z,99.90
2023-04-17T08:29:55.546Z,99.90
2023-04-17T08:32:23.647Z,99.90
2023-04-17T08:34:51.625Z,99.90
2023-04-17T08:37:20.980Z,99.90
2023-04-17T08:39:52.430Z,99.90
2023-04-17T08:42:20.606Z,99.90
2023-04-17T08:44:48.681Z,99.90
2023-04-17T08:47:19.073Z,99.90
2023-04-17T08:49:47.305Z,99.90
2023-04-17T08:52:16.733Z,99.90
2023-04-17T08:54:48.348Z,99.90
2023-04-17T08:57:17.825Z,99.90
2023-04-17T08:59:46.969Z,99.90
2023-04-17T09:02:15.130Z,99.90
2023-04-17T09:04:45.098Z,99.90
2023-04-17T09:07:15.443Z,99.90
2023-04-17T09:09:52.769Z,99.90
2023-04-17T09:12:21.671Z,99.90
2023-04-17T09:14:49.922Z,99.90
2023-04-17T09:17:19.665Z,99.90
2023-04-17T09:20:07.333Z,99.90
2023-04-17T09:22:36.078Z,99.90
2023-04-17T09:25:06.201Z,99.90
2023-04-17T09:27:34.154Z,99.90
2023-04-17T09:30:03.964Z,99.90
2023-04-17T09:32:33.200Z,99.90
2023-04-17T09:35:02.517Z,99.90
2023-04-17T09:37:49.587Z,99.90
2023-04-17T09:40:19.797Z,99.90
2023-04-17T09:42:58.971Z,99.90
2023-04-17T09:45:33.012Z,99.90
2023-04-17T09:48:01.252Z,99.90
2023-04-17T09:50:29.965Z,99.90
2023-04-17T09:52:57.969Z,99.90
2023-04-17T09:55:30.257Z,99.90
2023-04-17T09:58:00.428Z,99.90
2023-04-17T10:00:29.397Z,94.50
2023-04-17T10:02:59.246Z,91.40
2023-04-17T10:05:30.139Z,91.00
2023-04-17T10:07:58.214Z,98.50
2023-04-17T10:10:30.342Z,99.90
2023-04-17T10:13:01.124Z,99.90
2023-04-17T10:15:30.420Z,99.90
2023-04-17T10:18:23.028Z,99.90
2023-04-17T10:20:53.379Z,99.90
2023-04-17T10:23:32.701Z,99.90
2023-04-17T10:26:40.778Z,99.90
2023-04-17T10:29:10.460Z,99.90
2023-04-17T10:32:25.903Z,99.90
2023-04-17T10:34:54.932Z,99.90
2023-04-17T10:38:07.775Z,99.90
2023-04-17T10:40:37.120Z,99.90
2023-04-17T10:43:07.447Z,99.90
2023-04-17T10:46:02.308Z,99.90
2023-04-17T10:48:33.399Z,99.90
2023-04-17T10:51:02.411Z,99.90
2023-04-17T10:53:41.497Z,99.90
2023-04-17T10:56:10.281Z,99.90
2023-04-17T10:58:57.730Z,99.90
2023-04-17T11:01:30.257Z,96.70
2023-04-17T11:03:59.566Z,97.90
2023-04-17T11:06:29.104Z,94.30
2023-04-17T11:08:57.880Z,84.20
2023-04-17T11:11:40.489Z,85.00
2023-04-17T11:14:14.577Z,74.80
2023-04-17T11:16:46.081Z,75.60
2023-04-17T11:19:18.888Z,68.30
2023-04-17T11:21:48.553Z,68.00
2023-04-17T11:24:24.017Z,60.70
2023-04-17T11:26:52.147Z,59.80
2023-04-17T11:29:22.143Z,55.20
2023-04-17T11:31:53.586Z,59.90
2023-04-17T11:34:24.108Z,56.40
2023-04-17T11:36:52.873Z,62.90
2023-04-17T11:39:22.658Z,64.10
2023-04-17T11:41:52.849Z,64.60
2023-04-17T11:44:21.626Z,53.70
2023-04-17T11:46:52.432Z,58.70
2023-04-17T11:49:25.881Z,60.20
2023-04-17T11:51:54.072Z,61.70
2023-04-17T11:54:27.541Z,55.80
2023-04-17T11:57:06.305Z,49.80
2023-04-17T11:59:36.860Z,50.60
2023-04-17T12:02:12.444Z,49.50
2023-04-17T12:04:41.249Z,51.60
2023-04-17T12:07:21.650Z,48.40
2023-04-17T12:09:56.902Z,53.10
2023-04-17T12:12:24.907Z,55.90
2023-04-17T12:14:52.897Z,61.50
2023-04-17T12:17:22.269Z,60.30
2023-04-17T12:19:50.303Z,58.30
2023-04-17T12:22:18.297Z,59.50
2023-04-17T12:24:46.483Z,60.40
2023-04-17T12:27:18.294Z,62.50
2023-04-17T12:29:46.239Z,70.10
2023-04-17T12:32:16.037Z,69.20
2023-04-17T12:34:45.519Z,64.90
2023-04-17T12:37:13.524Z,61.50
2023-04-17T12:39:41.564Z,56.10
2023-04-17T12:42:23.628Z,53.20
2023-04-17T12:44:51.727Z,50.10
2023-04-17T12:47:19.764Z,49.60
2023-04-17T12:49:49.178Z,52.60
2023-04-17T12:52:17.202Z,56.40
2023-04-17T12:54:45.202Z,68.00
2023-04-17T12:57:13.191Z,82.00
2023-04-17T12:59:41.155Z,87.30
2023-04-17T13:02:09.259Z,91.00
2023-04-17T13:04:37.531Z,93.30
2023-04-17T13:07:07.120Z,92.10
2023-04-17T13:09:35.196Z,87.80
2023-04-17T13:12:05.386Z,81.40
2023-04-17T13:14:33.519Z,66.70
2023-04-17T13:17:01.542Z,59.20
2023-04-17T13:19:29.590Z,58.70
2023-04-17T13:21:57.530Z,52.80
2023-04-17T13:24:27.262Z,51.10
2023-04-17T13:26:57.662Z,45.20
2023-04-17T13:29:26.025Z,42.30
2023-04-17T13:31:54.028Z,39.40
2023-04-17T13:34:21.998Z,38.90
2023-04-17T13:36:49.985Z,41.70
2023-04-17T13:39:17.948Z,46.80
2023-04-17T13:41:47.361Z,50.20
2023-04-17T13:44:16.274Z,50.90
2023-04-17T13:46:44.364Z,53.60
2023-04-17T13:49:13.324Z,54.60
2023-04-17T13:51:43.455Z,58.20
2023-04-17T13:54:11.877Z,59.00
2023-04-17T13:56:40.057Z,59.00
2023-04-17T13:59:09.638Z,60.20
2023-04-17T14:01:37.679Z,62.30
2023-04-17T14:04:06.286Z,89.60
2023-04-17T14:06:49.454Z,96.20
2023-04-17T14:09:17.818Z,96.10
2023-04-17T14:11:45.799Z,92.40
2023-04-17T14:14:15.127Z,97.30
2023-04-17T14:16:43.305Z,83.90
2023-04-17T14:19:14.648Z,78.80
2023-04-17T14:21:43.405Z,74.30
2023-04-17T14:24:11.377Z,58.70
2023-04-17T14:26:39.542Z,51.20
2023-04-17T14:29:07.811Z,45.00
2023-04-17T14:31:37.332Z,43.20
2023-04-17T14:34:05.314Z,44.80
2023-04-17T14:36:35.175Z,41.30
2023-04-17T14:39:03.465Z,44.50
2023-04-17T14:41:40.673Z,43.10
2023-04-17T14:44:09.058Z,42.20
2023-04-17T14:46:39.218Z,43.70
2023-04-17T14:49:07.269Z,43.70
2023-04-17T14:51:35.292Z,47.00
2023-04-17T14:54:03.243Z,51.30
2023-04-17T14:56:31.225Z,57.60
2023-04-17T14:58:59.198Z,56.70
2023-04-17T15:01:27.178Z,58.10
2023-04-17T15:03:56.729Z,64.80
2023-04-17T15:06:24.870Z,78.40
2023-04-17T15:08:52.855Z,92.40
2023-04-17T15:11:20.932Z,99.60
2023-04-17T15:13:48.957Z,99.90
2023-04-17T15:16:16.986Z,99.40
2023-04-17T15:18:45.195Z,99.90
2023-04-17T15:21:23.782Z,99.90
2023-04-17T15:23:51.731Z,98.40
2023-04-17T15:26:22.891Z,95.00
2023-04-17T15:28:51.431Z,90.70
2023-04-17T15:31:20.554Z,77.80
2023-04-17T15:33:55.557Z,73.10
2023-04-17T15:36:31.248Z,65.40
2023-04-17T15:38:59.294Z,65.00
2023-04-17T15:41:27.369Z,64.50
2023-04-17T15:44:10.960Z,63.90
2023-04-17T15:46:38.929Z,62.10
2023-04-17T15:49:16.172Z,61.80
2023-04-17T15:51:45.594Z,64.30
2023-04-17T15:54:20.770Z,62.00
2023-04-17T15:57:00.734Z,63.00
2023-04-17T15:59:33.135Z,63.70
2023-04-17T16:02:01.350Z,61.00
2023-04-17T16:04:31.598Z,59.60
2023-04-17T16:07:01.258Z,58.80
2023-04-17T16:09:29.210Z,58.30
2023-04-17T16:11:57.662Z,62.50
2023-04-17T16:14:26.621Z,63.90
2023-04-17T16:16:54.776Z,69.70
2023-04-17T16:19:23.848Z,69.00
2023-04-17T16:21:51.999Z,64.40
2023-04-17T16:24:21.612Z,61.10
2023-04-17T16:26:54.610Z,58.70
2023-04-17T16:29:23.018Z,62.30
2023-04-17T16:31:51.395Z,67.70
2023-04-17T16:34:19.471Z,71.10
2023-04-17T16:36:47.560Z,65.50
2023-04-17T16:39:15.685Z,61.90
2023-04-17T16:41:45.403Z,56.60
2023-04-17T16:44:21.370Z,52.30
2023-04-17T16:49:21.612Z,51.20
2023-04-17T16:51:57.456Z,51.70
2023-04-17T16:54:26.185Z,52.50
2023-04-17T16:56:55.854Z,54.80
2023-04-17T16:59:27.974Z,56.90
2023-04-17T17:01:59.078Z,59.30
2023-04-17T17:04:28.178Z,61.00
2023-04-17T17:06:56.243Z,65.20
2023-04-17T17:09:24.310Z,73.60
2023-04-17T17:11:52.349Z,80.30
2023-04-17T17:14:27.717Z,86.80
2023-04-17T17:16:55.838Z,88.10
2023-04-17T17:19:24.930Z,90.80
2023-04-17T17:21:55.820Z,92.90
2023-04-17T17:24:34.743Z,95.60
2023-04-17T17:27:13.260Z,96.00
2023-04-17T17:29:42.747Z,98.80
2023-04-17T17:32:23.089Z,99.30
2023-04-17T17:34:52.559Z,99.90
2023-04-17T17:37:21.628Z,99.90
2023-04-17T17:39:50.200Z,99.90
2023-04-17T17:42:20.278Z,99.90
2023-04-17T17:44:49.607Z,99.90
2023-04-17T17:47:23.636Z,99.90
2023-04-17T17:49:57.956Z,99.90
2023-04-17T17:52:26.002Z,99.90
2023-04-17T17:54:54.266Z,99.90
2023-04-17T17:57:22.772Z,99.90
2023-04-17T17:59:59.229Z,99.90
2023-04-17T18:02:27.379Z,99.90
2023-04-17T18:04:56.426Z,99.90
2023-04-17T18:07:25.576Z,99.90
2023-04-17T18:09:53.529Z,99.90
2023-04-17T18:12:21.529Z,99.90
2023-04-17T18:14:50.136Z,99.90
2023-04-17T18:17:19.676Z,99.90
2023-04-17T18:19:47.758Z,99.90
2023-04-17T18:22:20.410Z,99.90
2023-04-17T18:24:48.403Z,99.90
2023-04-17T18:27:19.997Z,99.90
2023-04-17T18:29:48.044Z,99.90
2023-04-17T18:32:16.188Z,99.90
2023-04-17T18:34:49.064Z,99.90
2023-04-17T18:37:18.280Z,99.90
2023-04-17T18:39:46.432Z,99.90
2023-04-17T18:42:14.645Z,99.90
2023-04-17T18:44:42.843Z,99.90
2023-04-17T18:47:13.111Z,99.90
2023-04-17T18:49:42.093Z,99.90
2023-04-17T18:52:11.442Z,99.90
2023-04-17T18:54:39.469Z,99.90
2023-04-17T18:57:10.421Z,99.90
2023-04-17T18:59:38.372Z,99.90
2023-04-17T19:02:06.558Z,99.90
2023-04-17T19:04:56.246Z,99.90
2023-04-17T19:07:32.137Z,99.90
2023-04-17T19:10:00.165Z,99.90
2023-04-17T19:12:31.113Z,99.90
2023-04-17T19:15:00.197Z,99.90
2023-04-17T19:17:30.404Z,99.90
2023-04-17T19:20:00.513Z,99.90
2023-04-17T19:22:48.164Z,99.90
2023-04-17T19:25:17.951Z,99.90
2023-04-17T19:27:46.089Z,99.90
2023-04-17T19:30:15.287Z,99.90
2023-04-17T19:32:44.669Z,99.90
2023-04-17T19:35:20.619Z,99.90
2023-04-17T19:37:52.938Z,99.90
2023-04-17T19:40:25.035Z,99.90
2023-04-17T19:43:02.295Z,99.90
2023-04-17T19:45:32.094Z,99.90
2023-04-17T19:48:01.418Z,99.90
2023-04-17T19:50:33.377Z,99.90
2023-04-17T19:53:04.831Z,99.90
2023-04-17T19:55:32.947Z,99.90
2023-04-17T19:58:01.150Z,99.90
2023-04-17T20:00:35.195Z,99.90
2023-04-17T20:03:03.813Z,99.90
2023-04-17T20:05:33.025Z,99.90
2023-04-17T20:08:02.779Z,99.90
2023-04-17T20:10:39.901Z,99.90
2023-04-17T20:13:11.864Z,99.90
2023-04-17T20:15:44.726Z,99.90
2023-04-17T20:18:14.121Z,99.90
2023-04-17T20:20:50.148Z,99.90
2023-04-17T20:23:20.491Z,99.90
2023-04-17T20:25:58.144Z,99.90
2023-04-17T20:28:29.325Z,99.90
2023-04-17T20:31:00.721Z,99.90
2023-04-17T20:33:29.922Z,99.90
2023-04-17T20:35:58.321Z,99.90
2023-04-17T20:38:27.110Z,99.90
2023-04-17T20:40:55.583Z,99.90
2023-04-17T20:43:27.759Z,99.90
2023-04-17T20:46:08.295Z,99.90
2023-04-17T20:48:36.466Z,99.90
2023-04-17T20:51:17.658Z,99.90
2023-04-17T20:53:49.923Z,99.90
2023-04-17T20:56:18.020Z,99.90
2023-04-17T20:58:50.431Z,99.90
2023-04-17T21:01:20.414Z,99.90
2023-04-17T21:03:50.124Z,99.90
2023-04-17T21:06:25.978Z,99.90
2023-04-17T21:08:57.237Z,99.90
2023-04-17T21:11:25.541Z,99.90
2023-04-17T21:14:10.507Z,99.90
2023-04-17T21:16:39.323Z,99.90
2023-04-17T21:19:08.279Z,99.90
2023-04-17T21:21:36.706Z,99.90
2023-04-17T21:24:12.311Z,99.90
2023-04-17T21:26:46.837Z,99.90
2023-04-17T21:29:19.292Z,99.90
2023-04-17T21:31:48.098Z,99.90
2023-04-17T21:34:16.219Z,99.90
2023-04-17T21:36:44.378Z,99.90
2023-04-17T21:39:14.153Z,99.90
2023-04-17T21:41:46.197Z,99.90
2023-04-17T21:44:24.384Z,99.90
2023-04-17T21:46:53.562Z,99.90
2023-04-17T21:49:24.972Z,99.90
2023-04-17T21:51:52.999Z,99.90
2023-04-17T21:54:21.816Z,99.90
2023-04-17T21:56:50.570Z,99.90
2023-04-17T21:59:18.678Z,99.90
2023-04-17T22:01:48.275Z,99.90
2023-04-17T22:04:17.160Z,99.90
2023-04-17T22:06:51.758Z,99.90
2023-04-17T22:09:27.167Z,99.90
2023-04-17T22:11:58.789Z,99.90
2023-04-17T22:14:28.750Z,99.90
2023-04-17T22:16:58.613Z,99.90
2023-04-17T22:19:26.986Z,99.90
2023-04-17T22:21:55.853Z,99.90
2023-04-17T22:24:23.944Z,99.90
2023-04-17T22:26:52.024Z,99.90
2023-04-17T22:29:20.078Z,99.90
2023-04-17T22:31:55.154Z,99.90
2023-04-17T22:34:25.676Z,99.90
2023-04-17T22:36:55.185Z,99.90
2023-04-17T22:39:25.743Z,99.90
2023-04-17T22:41:53.777Z,99.90
2023-04-17T22:44:26.270Z,99.90
2023-04-17T22:46:55.269Z,99.90
2023-04-17T22:49:25.249Z,99.90
2023-04-17T22:51:59.243Z,99.90
2023-04-17T22:54:29.862Z,99.90
2023-04-17T22:56:58.865Z,99.90
2023-04-17T22:59:27.069Z,99.90
2023-04-17T23:01:55.430Z,99.90
2023-04-17T23:04:29.150Z,99.90
2023-04-17T23:07:03.259Z,99.90
2023-04-17T23:09:37.308Z,99.90
2023-04-17T23:12:11.279Z,99.90
2023-04-17T23:14:41.590Z,99.90
2023-04-17T23:17:10.668Z,99.90
2023-04-17T23:19:41.327Z,99.90
2023-04-17T23:22:10.829Z,99.90
2023-04-17T23:24:38.930Z,99.90
2023-04-17T23:27:09.820Z,99.90
2023-04-17T23:29:38.296Z,99.90
2023-04-17T23:32:08.133Z,99.90
2023-04-17T23:34:37.534Z,99.90
2023-04-17T23:37:16.999Z,99.90
2023-04-17T23:39:45.036Z,99.90
2023-04-17T23:42:13.034Z,99.90
2023-04-17T23:44:43.579Z,99.90
2023-04-17T23:47:14.386Z,99.90
2023-04-17T23:49:42.390Z,99.90
2023-04-17T23:52:11.688Z,99.90
2023-04-17T23:54:41.072Z,99.90
2023-04-17T23:57:09.143Z,99.90
2023-04-17T23:59:49.174Z,99.90
